Aérodrome :
LOGIN :

S'inscrire | Disclaimer

   EN    FR    IT 

 










Légende :    VFR   VFR Marginal   IFR   IFR Intensif   IFR Très Intensif
Visi : 
Plafond : 
>= 8 km
>= 3000ft
5 à 8 km
1000 à 3000 ft
1500m à 5 km
500 à 1000 ft
800 à 1500m
200 à 500 ft
< 800m
< 200 ft
Symboles :   Orages  Brouillard  Fortes neiges  Fortes précipitations  Vent > 20 kt
SIGMETs :   Divers  Orages  Givrage  Turbulence  Onde Orograph.  Cendres Volcan.







- Altitude de l'aérodrome : 502 ft
- Code IATA : ORK


EICK - Cork

DERNIER METAR :
  • 170730Z 24006KT 9999 FEW015 05/05 Q1017 NOSIG

METARs EXPIRÉS :
  • 170700Z VRB03KT 9999 FEW015 06/06 Q1016 NOSIG
  • 170630Z 25007KT 9999 FEW015 07/07 Q1016 NOSIG
  • 170600Z 24006KT 9999 FEW015 07/07 Q1016 NOSIG
  • 170530Z 23007KT 9999 FEW015 07/06 Q1016 NOSIG
  • 170500Z 23008KT 9999 FEW015 06/06 Q1016 NOSIG

TAF TAF EICK
Valide du 17 à 06h jusqu'au 18 à 06h UTC


170500Z 1706/1806 24008KT 9999 FEW012 BKN020
BECMG 1713/1716 14005KT
BECMG 1714/1716 VRB03KT
BECMG 1803/1806 BKN010
Pas de NOTAMs connus pour ce terrain.
1 SIGMET publié pour la FIR Shannon (EISN) :
 
Onde orographique forte
EISN SIGMET 04 VALID 170500/170800 EINN
EISN SHANNON FIR SEV MTW FCST N OF N5300 AND E OF W01030 FL050/200 MOV NE AT 25KT WKN=



MET'MAP, la Météo Aéronautique d'un coup d'oeil ! - Copyright ORBIFLY Décembre 2007 - Disclaimer

ORBIFLY MET'MAP TEAM :

Programmation & Développement : Alexandra Zaïnal
Conception & Développement : Baudouin d'Aumeries
Co-Programmation & Développement : Marc-Olivier Méhu
Soutien technique & logistique : Manuel Goepfert

Contact : metmap@orbifly.com




SOURCES & CREDITS :

   NOAA